Time;durP1;ratioP1;P1;durP2;ratioP2;P2;SDS_P1;SDS_P2;PMS_P1;PMS_P2;Temp;Humidity;BMP_temperature;BMP_pressure;BME280_temperature;BME280_humidity;BME280_pressure;Samples;Min_cycle;Max_cycle;Signal;HPM_P1;HPM_P2
2021/07/31 02:48:01;;;;;;;;;;;;;;;;;;;;;
2021/07/31 02:50:28;;;;;;;20.12;18.30;;;;;;;20.09;100.00;100431.00;1339139;104;21270;-86
2021/07/31 02:52:59;;;;;;;20.37;18.45;;;;;;;20.10;100.00;100427.88;1444948;96;21131;-87
2021/07/31 02:55:31;;;;;;;21.70;19.35;;;;;;;20.13;100.00;100432.30;1378369;97;21182;-86
2021/07/31 02:58:00;;;;;;;26.75;19.55;;;;;;;20.16;100.00;100430.59;1489839;93;21310;-84
2021/07/31 03:00:39;;;;;;;;;;;;;;;;;;;;;
2021/07/31 03:03:09;;;;;;;;;;;;;;;;;;;;;
2021/07/31 03:05:31;;;;;;;29.07;25.62;;;;;;;20.37;100.00;100436.97;1454477;96;21112;-86
2021/07/31 03:08:02;;;;;;;34.43;27.80;;;;;;;20.48;100.00;100442.28;1546116;89;21598;-83
2021/07/31 03:10:32;;;;;;;29.00;25.72;;;;;;;20.50;100.00;100438.96;1578637;89;21340;-86
2021/07/31 03:13:09;;;;;;;;;;;;;;;20.52;100.00;100444.06;1592702;88;21098;-86
2021/07/31 03:15:39;;;;;;;24.55;22.25;;;;;;;20.55;100.00;100440.54;1627731;86;20930;-88
2021/07/31 03:18:09;;;;;;;25.62;22.60;;;;;;;20.58;100.00;100443.31;1605191;88;21145;-86
2021/07/31 03:20:50;;;;;;;;;;;;;;;;;;;;;
2021/07/31 03:23:14;;;;;;;24.63;22.05;;;;;;;20.59;100.00;100434.38;1520432;91;21083;-87
2021/07/31 03:25:59;;;;;;;;;;;;;;;;;;;;;
2021/07/31 03:28:23;;;;;;;24.70;22.32;;;;;;;20.57;100.00;100439.02;1501964;93;21595;-86
2021/07/31 03:30:56;;;;;;;25.32;22.82;;;;;;;20.56;100.00;100442.19;1496459;93;21188;-86
2021/07/31 03:33:27;;;;;;;23.98;21.68;;;;;;;20.57;100.00;100445.63;1423111;98;21206;-85
2021/07/31 03:35:56;;;;;;;23.92;21.73;;;;;;;20.55;100.00;100449.80;1497778;93;21770;-87
2021/07/31 03:38:34;;;;;;;24.98;22.00;;;;;;;20.57;100.00;100450.92;1515492;92;21074;-86
2021/07/31 03:41:03;;;;;;;25.37;22.73;;;;;;;20.59;100.00;100451.05;1553495;90;21243;-87
2021/07/31 03:43:33;;;;;;;25.75;22.98;;;;;;;20.61;100.00;100446.92;1579752;88;21542;-86
2021/07/31 03:46:07;;;;;;;24.43;21.93;;;;;;;20.64;100.00;100451.82;1598567;87;21191;-86
2021/07/31 03:48:39;;;;;;;24.30;22.15;;;;;;;20.64;100.00;100457.95;1590439;87;21042;-85
2021/07/31 03:51:08;;;;;;;24.37;21.97;;;;;;;20.68;100.00;100461.04;1610676;87;21742;-85
2021/07/31 03:53:37;;;;;;;24.80;22.35;;;;;;;20.71;100.00;100461.16;1583049;87;21882;-86
2021/07/31 03:56:08;;;;;;;22.73;20.62;;;;;;;20.76;100.00;100464.09;1612996;87;21558;-86
2021/07/31 03:58:35;;;;;;;24.27;21.77;;;;;;;20.83;100.00;100462.85;1603461;86;20986;-85
2021/07/31 04:01:05;;;;;;;24.20;21.82;;;;;;;20.89;100.00;100464.74;1599455;87;21095;-88
2021/07/31 04:03:32;;;;;;;24.05;21.65;;;;;;;20.93;100.00;100468.67;1571574;88;21148;-86
2021/07/31 04:06:00;;;;;;;27.98;23.15;;;;;;;20.96;100.00;100468.28;1558747;88;21514;-86
2021/07/31 04:08:47;;;;;;;25.92;22.25;;;;;;;21.02;100.00;100468.88;1556418;87;21132;-86
2021/07/31 04:11:18;;;;;;;24.55;22.22;;;;;;;21.09;100.00;100464.95;1550840;89;21115;-85
2021/07/31 04:13:55;;;;;;;25.97;23.10;;;;;;;21.13;100.00;100464.91;1561550;89;21140;-87
2021/07/31 04:16:34;;;;;;;;;;;;;;;;;;;;;
2021/07/31 04:21:56;;;;;;;;;;;;;;;;;;;;;
2021/07/31 04:30:31;;;;;;;;;;;;;;;;;;;;;
2021/07/31 04:33:03;;;;;;;;;;;;;;;;;;;;;
2021/07/31 04:35:46;;;;;;;;;;;;;;;;;;;;;
2021/07/31 04:41:08;;;;;;;;;;;;;;;;;;;;;
2021/07/31 04:44:00;;;;;;;;;;;;;;;;;;;;;
2021/07/31 04:46:31;;;;;;;26.35;22.93;;;;;;;21.72;100.00;100474.41;1187960;116;22015;-88
2021/07/31 04:49:16;;;;;;;;;;;;;;;;;;;;;
2021/07/31 04:51:39;;;;;;;35.00;23.40;;;;;;;21.75;100.00;100470.55;1246123;111;21866;-86
2021/07/31 04:54:19;;;;;;;;;;;;;;;;;;;;;
2021/07/31 04:56:55;;;;;;;26.10;22.93;;;;;;;21.77;100.00;100468.53;1550253;90;21229;-90
2021/07/31 04:59:46;;;;;;;24.23;21.55;;;;;;;21.79;100.00;100470.48;1529476;90;21323;-84
2021/07/31 05:02:29;;;;;;;24.95;22.48;;;;;;;21.82;100.00;100474.06;1502140;91;22454;-84
2021/07/31 05:05:00;;;;;;;23.73;21.42;;;;;;;21.88;100.00;100475.13;1518985;88;21173;-88
2021/07/31 05:07:29;;;;;;;23.15;20.85;;;;;;;;;;1605094;87;21065;-86
2021/07/31 05:09:57;;;;;;;22.87;20.40;;;;;;;21.99;100.00;100479.88;1606701;86;21762;-86
2021/07/31 05:12:46;;;;;;;24.00;21.65;;;;;;;22.05;100.00;100491.54;1598525;86;21210;-86
2021/07/31 05:15:19;;;;;;;22.65;20.40;;;;;;;22.10;100.00;100489.62;1565104;89;21138;-88
2021/07/31 05:17:52;;;;;;;25.68;22.20;;;;;;;22.14;100.00;100488.24;1532552;90;21518;-87
2021/07/31 05:21:04;;;;;;;;;;;;;;;;;;;;;
2021/07/31 05:26:52;;;;;;;;;;;;;;;;;;;;;
2021/07/31 05:33:46;;;;;;;;;;;;;;;;;;;;;
2021/07/31 05:36:39;;;;;;;22.60;20.25;;;;;;;22.47;100.00;100495.59;1442474;97;21248;-85
2021/07/31 05:39:35;;;;;;;;;;;;;;;;;;;;;
2021/07/31 05:42:15;;;;;;;23.00;20.70;;;;;;;22.63;100.00;100503.22;1488005;93;22363;-91
2021/07/31 05:49:02;;;;;;;22.22;19.95;;;;;;;22.72;100.00;100501.20;1488204;93;21154;-90
2021/07/31 05:51:41;;;;;;;22.07;19.92;;;;;;;22.78;100.00;100503.05;1466197;92;21163;-87
2021/07/31 06:02:57;;;;;;;;;;;;;;;;;;;;;
2021/07/31 06:09:24;;;;;;;;;;;;;;;;;;;;;
2021/07/31 06:12:08;;;;;;;;;;;;;;;;;;;;;
2021/07/31 06:22:19;;;;;;;;;;;;;;;;;;;;;
2021/07/31 06:31:24;;;;;;;19.45;17.57;;;;;;;23.71;100.00;100503.43;1257976;112;21777;-89
2021/07/31 06:34:10;;;;;;;20.95;18.85;;;;;;;23.88;100.00;100497.17;1241970;111;21287;-88
2021/07/31 06:46:38;;;;;;;19.75;17.67;;;;;;;24.25;100.00;100500.22;1261788;109;21430;-88
2021/07/31 06:49:46;;;;;;;;;;;;;;;;;;;;;
2021/07/31 06:52:37;;;;;;;;;;;;;;;;;;;;;
2021/07/31 06:55:43;;;;;;;;;;;;;;;;;;;;;
2021/07/31 07:29:22;;;;;;;;;;;;;;;;;;;;;
2021/07/31 07:44:26;;;;;;;;;;;;;;;;;;;;;
2021/07/31 07:48:52;;;;;;;;;;;;;;;;;;;;;
2021/07/31 07:52:04;;;;;;;;;;;;;;;;;;;;;
2021/07/31 07:58:43;;;;;;;;;;;;;;;;;;;;;
2021/07/31 08:01:39;;;;;;;;;;;;;;;;;;;;;
2021/07/31 08:07:41;;;;;;;15.80;14.18;;;;;;;27.55;100.00;100505.52;1302578;108;21172;-89
2021/07/31 08:18:19;;;;;;;12.75;11.33;;;;;;;28.17;100.00;100509.08;1365371;104;21760;-88
2021/07/31 08:20:47;;;;;;;10.95;10.03;;;;;;;28.44;100.00;100506.40;1339074;105;21160;-84
2021/07/31 08:23:20;;;;;;;14.15;12.88;;;;;;;28.65;100.00;100503.06;1369918;103;21444;-92
2021/07/31 08:25:47;;;;;;;15.20;13.65;;;;;;;28.82;100.00;100508.22;1506214;89;21154;-86
2021/07/31 08:28:15;;;;;;;16.30;14.78;;;;;;;28.86;100.00;100506.67;1698851;82;21541;-88
2021/07/31 08:30:42;;;;;;;15.08;13.48;;;;;;;28.79;100.00;100506.30;1717952;79;21476;-88
2021/07/31 08:33:09;;;;;;;15.53;13.98;;;;;;;28.74;100.00;100510.23;1736712;80;21054;-87
2021/07/31 08:35:36;;;;;;;14.95;13.65;;;;;;;28.75;100.00;100508.36;1751823;80;21987;-87
2021/07/31 08:38:03;;;;;;;15.08;13.58;;;;;;;28.70;100.00;100510.95;1741121;80;21011;-86
2021/07/31 08:40:31;;;;;;;13.58;12.15;;;;;;;28.62;100.00;100512.93;1741670;80;21601;-87
2021/07/31 08:42:58;;;;;;;12.20;11.15;;;;;;;28.47;100.00;100509.95;1782725;79;21554;-86
2021/07/31 08:45:25;;;;;;;12.45;11.35;;;;;;;28.22;100.00;100513.73;1754764;80;21030;-88
2021/07/31 08:47:55;;;;;;;13.25;11.95;;;;;;;27.92;100.00;100510.66;1751610;80;21056;-88
2021/07/31 08:50:39;;;;;;;12.82;11.73;;;;;;;27.70;100.00;100511.23;1752462;80;21085;-90
2021/07/31 08:53:06;;;;;;;12.37;11.18;;;;;;;27.60;100.00;100510.98;1749192;80;21496;-88
2021/07/31 08:55:33;;;;;;;12.73;11.43;;;;;;;27.63;100.00;100504.38;1749253;79;21011;-88
2021/07/31 11:24:12;;;;;;;9.35;8.48;;;;;;;30.38;52.78;100444.56;1765848;77;21512;-87
2021/07/31 11:26:54;;;;;;;9.15;8.25;;;;;;;30.39;51.58;100446.19;1721253;81;21124;-93
2021/07/31 11:29:26;;;;;;;;;;;;;;;30.48;49.18;100446.02;1717313;82;21300;-89
2021/07/31 11:32:11;;;;;;;8.40;7.67;;;;;;;30.64;55.38;100454.27;1727725;81;20139;-88
2021/07/31 11:34:39;;;;;;;9.28;8.48;;;;;;;30.67;52.62;100450.53;1683744;81;21061;-89
2021/07/31 11:37:10;;;;;;;8.13;7.47;;;;;;;30.71;52.90;100445.46;1742410;81;21491;-88
2021/07/31 11:39:39;;;;;;;8.93;8.13;;;;;;;30.75;56.13;100442.53;1712697;81;21111;-88
2021/07/31 11:42:07;;;;;;;8.93;8.08;;;;;;;30.76;55.06;100438.78;1709845;82;21089;-89
2021/07/31 11:44:40;;;;;;;8.33;7.53;;;;;;;30.89;53.12;100436.20;1673907;83;20979;-88
2021/07/31 11:47:08;;;;;;;11.38;8.98;;;;;;;31.08;52.81;100439.86;1621855;85;21130;-88
2021/07/31 11:49:46;;;;;;;8.88;8.15;;;;;;;31.28;50.25;100433.86;1626194;85;21369;-88
2021/07/31 11:52:12;;;;;;;10.08;7.95;;;;;;;31.40;54.17;100435.80;1689910;83;21580;-88
2021/07/31 11:54:42;;;;;;;11.20;8.55;;;;;;;31.43;50.35;100430.44;1725187;81;22197;-88
2021/07/31 11:57:10;;;;;;;9.00;8.10;;;;;;;31.47;51.16;100432.35;1641569;85;21122;-89
2021/07/31 11:59:40;;;;;;;8.55;7.95;;;;;;;31.53;50.86;100426.47;1667946;84;21011;-89
2021/07/31 12:02:08;;;;;;;8.75;8.05;;;;;;;31.55;47.23;100432.41;1658223;83;21026;-88
2021/07/31 12:04:51;;;;;;;8.33;7.62;;;;;;;31.61;53.64;100426.50;1680264;84;21084;-88
2021/07/31 12:07:24;;;;;;;8.38;7.78;;;;;;;31.67;51.17;100425.50;1687745;83;21150;-88
2021/07/31 12:10:11;;;;;;;8.53;7.80;;;;;;;31.75;50.21;100422.84;1658812;84;21073;-88
2021/07/31 12:12:45;;;;;;;9.15;8.20;;;;;;;31.80;57.10;100428.78;1693021;83;21125;-88
2021/07/31 12:15:24;;;;;;;8.75;7.95;;;;;;;31.77;56.75;100420.16;1677129;83;20994;-88
2021/07/31 12:18:31;;;;;;;;;;;;;;;;;;;;;
2021/07/31 12:20:43;;;;;;;8.30;7.60;;;;;;;31.84;53.46;100420.47;1637963;83;22240;-88
2021/07/31 12:23:13;;;;;;;7.95;7.35;;;;;;;31.95;53.05;100423.45;1688439;83;21100;-89
2021/07/31 12:25:59;;;;;;;8.68;7.97;;;;;;;32.01;46.72;100424.30;1707683;83;21069;-88
2021/07/31 12:28:45;;;;;;;7.97;7.35;;;;;;;31.92;47.16;100422.11;1657574;82;21148;-88
2021/07/31 12:31:29;;;;;;;8.13;7.47;;;;;;;31.76;51.31;100423.94;1649774;84;21176;-89
2021/07/31 12:33:59;;;;;;;8.10;7.40;;;;;;;31.57;51.47;100419.48;1698274;82;21045;-88
2021/07/31 12:36:29;;;;;;;8.00;7.30;;;;;;;31.42;48.14;100417.53;1688027;84;21168;-89
2021/07/31 12:38:57;;;;;;;7.65;6.95;;;;;;;31.41;45.77;100419.95;1681773;83;21127;-88
2021/07/31 12:41:25;;;;;;;7.90;7.20;;;;;;;31.40;54.88;100419.67;1675688;84;21116;-88
2021/07/31 12:43:53;;;;;;;7.90;7.20;;;;;;;31.25;48.23;100414.19;1696141;83;21595;-88
2021/07/31 12:46:21;;;;;;;9.03;8.30;;;;;;;31.10;52.33;100417.57;1698647;83;21084;-88
2021/07/31 12:48:50;;;;;;;8.83;8.13;;;;;;;31.03;50.59;100420.47;1700839;82;21642;-87
2021/07/31 12:51:17;;;;;;;8.80;7.90;;;;;;;31.04;45.65;100417.23;1699410;83;21516;-89
2021/07/31 12:53:45;;;;;;;9.58;7.83;;;;;;;31.08;45.35;100417.81;1700568;82;21060;-88
2021/07/31 12:56:12;;;;;;;8.45;7.65;;;;;;;31.24;50.78;100416.08;1655176;84;20979;-91
2021/07/31 12:58:40;;;;;;;17.05;8.05;;;;;;;31.40;49.71;100414.83;1703492;84;21187;-89
2021/07/31 13:01:08;;;;;;;8.43;7.20;;;;;;;31.57;52.04;100407.92;1696832;82;21084;-89
2021/07/31 13:03:35;;;;;;;7.62;6.92;;;;;;;31.77;47.31;100416.66;1663961;86;21118;-89
2021/07/31 13:06:03;;;;;;;7.58;6.97;;;;;;;31.96;46.79;100418.34;1673653;84;21068;-88
2021/07/31 13:08:32;;;;;;;8.55;7.75;;;;;;;31.95;42.36;100416.73;1647791;85;21065;-89
2021/07/31 13:10:59;;;;;;;10.90;7.28;;;;;;;31.89;41.78;100412.41;1669887;84;21095;-88
2021/07/31 13:13:27;;;;;;;8.05;7.35;;;;;;;31.89;42.95;100413.20;1700669;82;21050;-88
2021/07/31 13:15:55;;;;;;;8.15;7.47;;;;;;;31.96;42.93;100412.17;1721524;81;21121;-89
2021/07/31 13:18:22;;;;;;;8.40;7.70;;;;;;;31.97;41.89;100411.10;1688996;83;21151;-88
2021/07/31 13:20:51;;;;;;;7.97;7.20;;;;;;;31.92;44.71;100407.30;1691554;83;21008;-88
2021/07/31 13:23:18;;;;;;;8.40;7.53;;;;;;;31.81;45.39;100407.52;1690529;83;21085;-88
2021/07/31 13:25:46;;;;;;;8.00;7.22;;;;;;;31.65;44.79;100414.16;1691600;82;21063;-88
2021/07/31 13:28:14;;;;;;;8.20;7.45;;;;;;;31.51;47.31;100414.35;1660387;84;21525;-88
2021/07/31 13:30:46;;;;;;;7.50;6.72;;;;;;;31.41;46.87;100407.84;1698696;83;21053;-88
2021/07/31 13:33:20;;;;;;;7.90;7.17;;;;;;;31.40;45.28;100410.25;1697563;81;21052;-88
2021/07/31 13:35:51;;;;;;;8.15;7.45;;;;;;;31.40;45.38;100415.63;1699358;83;20954;-88
2021/07/31 13:38:29;;;;;;;;;;;;;;;;;;;;;
2021/07/31 13:40:59;;;;;;;8.48;7.70;;;;;;;31.40;48.79;100415.63;1699334;81;21148;-89
2021/07/31 13:43:37;;;;;;;;;;;;;;;;;;;;;
2021/07/31 14:15:44;;;;;;;8.98;8.08;;;;;;;30.06;56.99;100409.83;1639878;85;21182;-90
2021/07/31 14:19:02;;;;;;;9.10;8.30;;;;;;;29.71;63.46;100411.00;1564613;89;21556;-90
2021/07/31 14:25:09;;;;;;;9.70;8.70;;;;;;;29.44;79.73;100408.22;1500930;92;21136;-90
2021/07/31 14:26:54;;;;;;;9.45;8.48;;;;;;;29.53;76.22;100404.58;1595006;84;21120;-88
2021/07/31 14:29:26;;;;;;;9.90;8.73;;;;;;;29.68;67.96;100412.83;1687794;84;21097;-86
2021/07/31 14:31:53;;;;;;;10.27;8.13;;;;;;;29.84;71.88;100408.48;1655741;85;21039;-89
2021/07/31 14:34:24;;;;;;;20.32;9.93;;;;;;;29.97;60.16;100404.62;1685018;83;21146;-87
2021/07/31 14:36:52;;;;;;;8.48;7.75;;;;;;;30.08;53.10;100404.23;1683481;83;21108;-88
2021/07/31 14:39:19;;;;;;;8.80;8.00;;;;;;;30.18;51.77;100396.27;1656010;85;21169;-89
2021/07/31 14:41:46;;;;;;;10.35;8.00;;;;;;;30.26;49.89;100397.71;1685381;83;22040;-87
2021/07/31 14:44:13;;;;;;;8.78;7.97;;;;;;;30.31;50.49;100399.64;1657232;84;21178;-85
2021/07/31 14:46:41;;;;;;;8.83;7.85;;;;;;;30.31;53.18;100398.30;1663376;83;21789;-89
2021/07/31 14:49:08;;;;;;;8.98;8.18;;;;;;;30.31;54.16;100398.30;1685403;83;21100;-88
2021/07/31 14:51:37;;;;;;;9.05;8.03;;;;;;;30.33;54.60;100392.13;1664629;83;21623;-88
2021/07/31 14:54:04;;;;;;;9.40;8.60;;;;;;;30.38;55.26;100395.67;1708584;82;21055;-87
2021/07/31 14:56:31;;;;;;;9.50;8.70;;;;;;;30.43;55.84;100390.09;1660031;84;21541;-85
2021/07/31 14:58:58;;;;;;;9.18;8.38;;;;;;;30.47;57.54;100394.70;1684005;83;21221;-84
2021/07/31 15:01:27;;;;;;;9.95;8.73;;;;;;;30.49;56.48;100381.02;1685694;83;21507;-90
2021/07/31 15:03:54;;;;;;;8.38;7.62;;;;;;;30.51;56.04;100393.15;1710634;82;21060;-85
2021/07/31 15:06:21;;;;;;;10.98;9.88;;;;;;;30.51;56.75;100390.46;1706067;83;21086;-89
2021/07/31 15:08:50;;;;;;;10.45;9.43;;;;;;;30.52;54.79;100391.29;1690377;83;20964;-85
2021/07/31 15:11:17;;;;;;;10.43;9.35;;;;;;;30.50;54.32;100389.35;1706409;83;21133;-89
2021/07/31 15:13:44;;;;;;;10.15;9.18;;;;;;;30.47;52.60;100387.16;1690934;83;21453;-87
2021/07/31 15:16:12;;;;;;;8.90;8.00;;;;;;;30.43;51.45;100397.60;1689834;81;21113;-88
2021/07/31 15:18:43;;;;;;;9.35;8.53;;;;;;;30.37;49.96;100389.23;1712690;83;21106;-89
2021/07/31 15:21:15;;;;;;;9.35;8.55;;;;;;;30.32;51.60;100391.88;1710266;82;21051;-91
2021/07/31 15:23:53;;;;;;;10.35;8.63;;;;;;;30.28;56.69;100386.71;1619844;87;21728;-88
2021/07/31 15:26:34;;;;;;;;;;;;;;;;;;;;;
2021/07/31 15:29:17;;;;;;;;;;;;;;;;;;;;;
2021/07/31 15:35:33;;;;;;;;;;;;;;;;;;;;;
2021/07/31 15:38:47;;;;;;;;;;;;;;;;;;;;;
2021/07/31 16:28:53;;;;;;;37.48;13.50;;;;;;;29.12;100.00;100413.61;1327494;104;21180;-88
2021/07/31 16:31:39;;;;;;;27.37;12.47;;;;;;;29.00;100.00;100412.06;1328343;104;21336;-87
2021/07/31 16:34:20;;;;;;;;;;;;;;;;;;;;;
2021/07/31 16:36:52;;;;;;;36.20;12.45;;;;;;;28.76;100.00;100405.52;1328284;105;21182;-88
2021/07/31 16:39:19;;;;;;;23.07;11.22;;;;;;;28.66;100.00;100410.14;1321808;106;21212;-88
2021/07/31 16:42:03;;;;;;;;;;;;;;;;;;;;;
2021/07/31 16:44:37;;;;;;;;;;;;;;;;;;;;;
2021/07/31 16:47:03;;;;;;;15.53;11.35;;;;;;;28.37;100.00;100409.34;1290955;109;21244;-87
2021/07/31 16:49:48;;;;;;;;;;;;;;;;;;;;;
2021/07/31 16:52:20;;;;;;;;;;;;;;;;;;;;;
2021/07/31 16:54:44;;;;;;;28.50;13.58;;;;;;;28.08;100.00;100412.02;1293055;109;21245;-87
2021/07/31 16:57:26;;;;;;;;;;;;;;;;;;;;;
2021/07/31 17:00:04;;;;;;;;;;;;;;;;;;;;;
2021/07/31 17:02:51;;;;;;;;;;;;;;;;;;;;;
2021/07/31 17:06:18;;;;;;;;;;;;;;;;;;;;;
2021/07/31 17:09:48;;;;;;;;;;;;;;;;;;;;;
2021/07/31 17:12:57;;;;;;;30.02;15.03;;;;;;;27.49;100.00;100417.69;1297870;106;21183;-90
2021/07/31 17:15:34;;;;;;;42.27;15.05;;;;;;;27.29;100.00;100411.86;1342595;101;22200;-88
2021/07/31 17:18:00;;;;;;;35.95;14.28;;;;;;;27.17;100.00;100418.53;1381326;101;21614;-90
2021/07/31 17:20:39;;;;;;;;;;;;;;;;;;;;;
2021/07/31 17:23:03;;;;;;;36.88;14.45;;;;;;;27.05;100.00;100417.97;1528384;92;21558;-88
2021/07/31 17:25:34;;;;;;;35.15;13.93;;;;;;;27.01;100.00;100419.49;1536544;91;21159;-88
2021/07/31 17:28:03;;;;;;;26.10;13.72;;;;;;;26.98;100.00;100419.94;1529284;90;21146;-89
2021/07/31 17:30:36;;;;;;;24.45;13.13;;;;;;;26.95;100.00;100426.27;1562321;90;21264;-86
2021/07/31 17:33:03;;;;;;;21.27;12.68;;;;;;;26.88;100.00;100423.18;1552639;90;21156;-89
2021/07/31 17:35:30;;;;;;;23.52;12.95;;;;;;;26.83;100.00;100429.73;1556755;88;21125;-88
2021/07/31 17:37:58;;;;;;;32.33;14.00;;;;;;;26.73;100.00;100431.57;1636662;83;20979;-89
2021/07/31 17:40:25;;;;;;;35.80;17.85;;;;;;;26.63;100.00;100430.50;1682319;83;21517;-88
2021/07/31 17:42:52;;;;;;;40.67;19.15;;;;;;;26.50;100.00;100428.82;1644698;83;21026;-87
2021/07/31 17:45:19;;;;;;;42.45;21.93;;;;;;;26.38;100.00;100432.27;1679857;84;21039;-89
2021/07/31 17:47:46;;;;;;;36.30;21.95;;;;;;;26.28;100.00;100434.64;1679710;84;21106;-88
2021/07/31 17:50:13;;;;;;;38.13;21.48;;;;;;;26.19;100.00;100431.98;1676402;83;21180;-88
2021/07/31 17:52:40;;;;;;;39.27;20.85;;;;;;;26.08;100.00;100433.55;1653690;83;21097;-87
2021/07/31 17:55:09;;;;;;;29.18;18.73;;;;;;;26.01;100.00;100429.58;1673611;83;21374;-88
2021/07/31 17:57:36;;;;;;;29.98;17.80;;;;;;;25.89;100.00;100441.50;1681755;83;21051;-88
2021/07/31 18:00:07;;;;;;;25.37;17.32;;;;;;;25.80;100.00;100438.83;1676894;83;21094;-88
2021/07/31 18:02:36;;;;;;;25.57;16.80;;;;;;;25.70;100.00;100445.20;1699973;82;20994;-89
2021/07/31 18:05:04;;;;;;;28.85;17.55;;;;;;;25.60;100.00;100441.72;1633360;84;21050;-89
2021/07/31 18:07:31;;;;;;;26.37;17.90;;;;;;;25.54;100.00;100450.57;1656449;83;21047;-88
2021/07/31 18:09:59;;;;;;;26.33;17.07;;;;;;;25.48;100.00;100454.91;1655216;83;21587;-88
2021/07/31 18:12:28;;;;;;;27.05;17.20;;;;;;;25.43;100.00;100458.27;1658108;85;21504;-88
2021/07/31 18:14:57;;;;;;;31.82;16.82;;;;;;;25.39;100.00;100457.05;1678762;83;21097;-89
2021/07/31 18:17:27;;;;;;;24.65;16.07;;;;;;;25.36;100.00;100456.11;1654615;84;21052;-88
2021/07/31 18:19:56;;;;;;;24.92;17.02;;;;;;;25.32;100.00;100454.93;1690836;83;21544;-88
2021/07/31 18:22:23;;;;;;;26.62;17.17;;;;;;;25.30;100.00;100456.98;1662050;84;21022;-88
2021/07/31 18:24:50;;;;;;;23.70;16.12;;;;;;;25.27;100.00;100464.10;1658164;84;21298;-87
2021/07/31 18:27:17;;;;;;;20.32;16.20;;;;;;;25.23;100.00;100469.55;1657300;84;21318;-89
2021/07/31 18:29:44;;;;;;;25.00;16.45;;;;;;;25.18;100.00;100469.70;1633741;85;21603;-88
2021/07/31 18:32:12;;;;;;;24.32;15.93;;;;;;;25.12;100.00;100476.39;1691811;83;21089;-88
2021/07/31 18:34:39;;;;;;;22.00;17.87;;;;;;;25.04;100.00;100476.95;1697764;82;21030;-87
2021/07/31 18:37:08;;;;;;;25.20;18.07;;;;;;;24.98;100.00;100482.31;1686454;83;21639;-89
2021/07/31 18:39:37;;;;;;;24.52;18.00;;;;;;;24.88;100.00;100479.59;1697449;83;21102;-89
2021/07/31 18:42:05;;;;;;;29.70;18.42;;;;;;;24.83;100.00;100485.28;1666719;84;21048;-90
2021/07/31 18:44:36;;;;;;;29.95;17.73;;;;;;;24.80;100.00;100484.36;1699165;82;21074;-91
2021/07/31 18:47:07;;;;;;;21.68;17.27;;;;;;;24.75;100.00;100483.67;1656165;83;22056;-90
2021/07/31 18:49:49;;;;;;;;;;;;;;;;;;;;;
2021/07/31 18:52:23;;;;;;;;;;;;;;;;;;;;;
2021/07/31 18:54:46;;;;;;;19.92;16.02;;;;;;;24.50;100.00;100487.02;1561788;85;21217;-87
2021/07/31 18:57:14;;;;;;;32.93;18.67;;;;;;;24.42;100.00;100487.25;1653905;84;21110;-88
2021/07/31 18:59:41;;;;;;;22.50;16.97;;;;;;;24.33;100.00;100489.84;1681638;83;21022;-88
2021/07/31 19:02:08;;;;;;;19.23;16.97;;;;;;;24.23;100.00;100484.47;1663366;83;21118;-88
2021/07/31 19:04:36;;;;;;;27.20;16.30;;;;;;;24.20;100.00;100490.70;1706238;82;21066;-87
2021/07/31 19:07:04;;;;;;;24.67;15.75;;;;;;;24.19;100.00;100491.22;1709866;82;21288;-88
2021/07/31 19:09:32;;;;;;;21.57;16.45;;;;;;;24.19;100.00;100496.54;1682171;83;21117;-88
2021/07/31 19:12:00;;;;;;;18.60;16.62;;;;;;;24.11;100.00;100495.44;1685494;83;21081;-88
2021/07/31 19:14:29;;;;;;;17.25;15.58;;;;;;;24.01;100.00;100494.54;1713391;81;21138;-88
2021/07/31 19:16:56;;;;;;;21.82;16.30;;;;;;;23.94;100.00;100495.06;1685514;83;21181;-87
2021/07/31 19:19:23;;;;;;;17.15;15.35;;;;;;;23.89;100.00;100497.48;1676635;83;21066;-87
2021/07/31 19:21:50;;;;;;;21.07;16.95;;;;;;;23.79;100.00;100490.77;1686498;83;21061;-87
2021/07/31 19:24:17;;;;;;;17.25;15.65;;;;;;;23.73;100.00;100489.43;1690613;83;21553;-88
2021/07/31 19:26:45;;;;;;;20.62;15.98;;;;;;;23.65;100.00;100494.43;1682197;83;21236;-88
2021/07/31 19:29:12;;;;;;;17.27;15.58;;;;;;;23.55;100.00;100493.52;1682993;83;21105;-88
2021/07/31 19:31:39;;;;;;;20.77;15.58;;;;;;;23.50;100.00;100499.97;1684106;82;21024;-88
2021/07/31 19:34:06;;;;;;;20.80;16.77;;;;;;;23.43;100.00;100494.64;1685180;82;21067;-88
2021/07/31 19:36:33;;;;;;;22.13;16.60;;;;;;;23.42;100.00;100493.52;1716343;83;21014;-89
2021/07/31 19:39:00;;;;;;;20.20;16.42;;;;;;;23.44;100.00;100496.77;1680181;83;21129;-89
2021/07/31 19:41:29;;;;;;;16.77;15.03;;;;;;;23.41;100.00;100500.66;1661214;83;21150;-88
2021/07/31 19:43:56;;;;;;;17.23;15.43;;;;;;;23.39;100.00;100505.88;1685931;82;21553;-87
2021/07/31 19:46:23;;;;;;;18.12;16.25;;;;;;;23.37;100.00;100507.41;1687078;83;21110;-88
2021/07/31 19:48:50;;;;;;;17.77;16.10;;;;;;;23.34;100.00;100502.50;1682233;83;21184;-87
2021/07/31 19:51:17;;;;;;;23.05;16.60;;;;;;;23.31;100.00;100502.39;1683552;82;21811;-88
2021/07/31 19:53:44;;;;;;;23.50;16.05;;;;;;;23.34;100.00;100507.00;1682393;83;20951;-88
2021/07/31 19:56:11;;;;;;;17.65;15.85;;;;;;;23.36;100.00;100509.76;1681723;82;21516;-88
2021/07/31 19:58:40;;;;;;;17.05;15.30;;;;;;;23.41;100.00;100517.92;1708582;82;21047;-88
2021/07/31 20:01:08;;;;;;;17.48;15.28;;;;;;;23.40;100.00;100510.97;1683154;83;21255;-89
2021/07/31 20:03:37;;;;;;;18.62;16.62;;;;;;;23.39;100.00;100512.02;1658029;83;21075;-87
2021/07/31 20:06:05;;;;;;;18.60;16.70;;;;;;;23.41;100.00;100517.12;1683717;83;20960;-88
2021/07/31 20:08:32;;;;;;;20.60;17.05;;;;;;;23.45;100.00;100518.34;1685937;83;21499;-88
2021/07/31 20:10:59;;;;;;;17.85;16.00;;;;;;;23.48;100.00;100520.60;1683777;83;20991;-87
2021/07/31 20:13:26;;;;;;;18.40;16.45;;;;;;;23.46;100.00;100518.16;1712396;81;21430;-88
2021/07/31 20:15:55;;;;;;;19.57;17.00;;;;;;;23.43;100.00;100515.09;1660432;83;21167;-88
2021/07/31 20:18:25;;;;;;;20.68;16.82;;;;;;;23.38;100.00;100517.02;1712438;82;21150;-87
2021/07/31 20:20:52;;;;;;;18.95;16.80;;;;;;;23.35;100.00;100520.08;1661415;83;21263;-88
2021/07/31 20:23:19;;;;;;;18.85;16.97;;;;;;;23.31;100.00;100520.98;1689673;83;21129;-87
2021/07/31 20:25:46;;;;;;;19.05;16.77;;;;;;;23.29;100.00;100523.55;1678140;83;21201;-88
2021/07/31 20:28:18;;;;;;;18.05;16.45;;;;;;;23.25;100.00;100520.47;1683137;83;21561;-89
2021/07/31 20:30:48;;;;;;;17.45;15.65;;;;;;;23.22;100.00;100528.83;1713584;81;21188;-88
2021/07/31 20:33:15;;;;;;;18.92;16.52;;;;;;;23.20;100.00;100528.73;1685989;83;21070;-88
2021/07/31 20:35:42;;;;;;;18.65;16.62;;;;;;;23.16;100.00;100538.91;1684312;83;21039;-87
2021/07/31 20:38:10;;;;;;;23.70;17.12;;;;;;;23.16;100.00;100539.71;1690207;83;21014;-87
2021/07/31 20:40:38;;;;;;;19.07;16.35;;;;;;;23.20;100.00;100536.70;1664790;82;21087;-88
2021/07/31 20:43:05;;;;;;;18.77;16.45;;;;;;;23.19;100.00;100539.88;1685886;83;21165;-88
2021/07/31 20:45:35;;;;;;;18.85;16.95;;;;;;;23.19;100.00;100541.20;1684506;83;21055;-88
2021/07/31 20:48:01;;;;;;;21.12;17.00;;;;;;;23.20;100.00;100542.01;1683812;82;21121;-88
2021/07/31 20:50:28;;;;;;;18.17;16.25;;;;;;;23.18;100.00;100549.34;1682648;83;20991;-87
2021/07/31 20:52:55;;;;;;;22.95;16.50;;;;;;;23.15;100.00;100551.88;1687851;83;21932;-88
2021/07/31 20:55:23;;;;;;;17.60;15.75;;;;;;;23.09;100.00;100549.50;1679719;83;21102;-88
2021/07/31 20:57:52;;;;;;;20.55;16.65;;;;;;;23.06;100.00;100553.06;1710165;82;21664;-88
2021/07/31 21:00:21;;;;;;;16.82;15.20;;;;;;;22.99;100.00;100553.06;1663268;83;21103;-88
2021/07/31 21:02:55;;;;;;;17.62;15.83;;;;;;;22.92;100.00;100550.38;1698712;83;21146;-88
2021/07/31 21:05:21;;;;;;;17.77;16.10;;;;;;;22.86;100.00;100548.52;1682773;83;21112;-88
2021/07/31 21:07:48;;;;;;;22.05;16.57;;;;;;;22.84;100.00;100551.35;1683737;83;22048;-88
2021/07/31 21:10:15;;;;;;;17.70;16.00;;;;;;;22.83;100.00;100548.91;1682820;83;21107;-89
2021/07/31 21:12:42;;;;;;;18.02;16.20;;;;;;;22.81;100.00;100554.42;1689038;83;21187;-89
2021/07/31 21:15:10;;;;;;;18.70;16.82;;;;;;;22.75;100.00;100558.36;1683793;83;21058;-89
2021/07/31 21:17:39;;;;;;;19.12;17.17;;;;;;;22.74;100.00;100560.70;1690548;83;21134;-87
2021/07/31 21:20:08;;;;;;;24.35;17.10;;;;;;;22.71;100.00;100563.77;1685624;83;21106;-87